sensor_id;sensor_type;location;lat;lon;timestamp;pressure;altitude;pressure_sealevel;temperature;humidity
77454;BME280;66538;53.150;18.160;2023-08-07T00:01:18;99569.11;;;14.58;90.61
77454;BME280;66538;53.150;18.160;2023-08-07T00:03:45;99566.70;;;14.60;90.48
77454;BME280;66538;53.150;18.160;2023-08-07T00:06:12;99568.20;;;14.61;90.45
77454;BME280;66538;53.150;18.160;2023-08-07T00:08:38;99570.30;;;14.58;90.11
77454;BME280;66538;53.150;18.160;2023-08-07T00:11:09;99576.66;;;14.58;90.23
77454;BME280;66538;53.150;18.160;2023-08-07T00:13:36;99582.51;;;14.56;90.22
77454;BME280;66538;53.150;18.160;2023-08-07T00:16:03;99587.59;;;14.54;90.11
77454;BME280;66538;53.150;18.160;2023-08-07T00:18:30;99585.36;;;14.55;89.78
77454;BME280;66538;53.150;18.160;2023-08-07T00:20:57;99580.73;;;14.57;89.88
77454;BME280;66538;53.150;18.160;2023-08-07T00:23:23;99579.64;;;14.55;89.93
77454;BME280;66538;53.150;18.160;2023-08-07T00:25:50;99588.45;;;14.55;90.01
77454;BME280;66538;53.150;18.160;2023-08-07T00:28:16;99589.35;;;14.54;89.85
77454;BME280;66538;53.150;18.160;2023-08-07T00:30:43;99589.09;;;14.53;89.67
77454;BME280;66538;53.150;18.160;2023-08-07T00:33:10;99587.14;;;14.53;89.81
77454;BME280;66538;53.150;18.160;2023-08-07T00:35:37;99578.36;;;14.51;89.72
77454;BME280;66538;53.150;18.160;2023-08-07T00:38:04;99577.63;;;14.52;89.73
77454;BME280;66538;53.150;18.160;2023-08-07T00:40:38;99576.98;;;14.51;89.88
77454;BME280;66538;53.150;18.160;2023-08-07T00:43:05;99575.59;;;14.52;89.74
77454;BME280;66538;53.150;18.160;2023-08-07T00:45:38;99572.03;;;14.52;89.63
77454;BME280;66538;53.150;18.160;2023-08-07T00:48:08;99569.42;;;14.53;89.69
77454;BME280;66538;53.150;18.160;2023-08-07T00:50:35;99569.17;;;14.53;89.59
77454;BME280;66538;53.150;18.160;2023-08-07T00:53:02;99564.67;;;14.52;89.47
77454;BME280;66538;53.150;18.160;2023-08-07T00:55:29;99559.46;;;14.52;89.50
77454;BME280;66538;53.150;18.160;2023-08-07T00:57:58;99559.27;;;14.51;89.52
77454;BME280;66538;53.150;18.160;2023-08-07T01:00:27;99553.56;;;14.49;89.54
77454;BME280;66538;53.150;18.160;2023-08-07T01:02:56;99556.42;;;14.49;89.62
77454;BME280;66538;53.150;18.160;2023-08-07T01:05:26;99557.80;;;14.48;89.68
77454;BME280;66538;53.150;18.160;2023-08-07T01:07:53;99558.15;;;14.47;89.34
77454;BME280;66538;53.150;18.160;2023-08-07T01:10:29;99548.14;;;14.46;89.67
77454;BME280;66538;53.150;18.160;2023-08-07T01:13:10;99547.55;;;14.46;89.47
77454;BME280;66538;53.150;18.160;2023-08-07T01:15:39;99553.83;;;14.44;89.58
77454;BME280;66538;53.150;18.160;2023-08-07T01:18:07;99552.83;;;14.45;89.63
77454;BME280;66538;53.150;18.160;2023-08-07T01:20:34;99552.27;;;14.43;89.52
77454;BME280;66538;53.150;18.160;2023-08-07T01:23:03;99556.93;;;14.41;89.63
77454;BME280;66538;53.150;18.160;2023-08-07T01:25:30;99559.13;;;14.39;89.68
77454;BME280;66538;53.150;18.160;2023-08-07T01:28:04;99561.82;;;14.37;89.91
77454;BME280;66538;53.150;18.160;2023-08-07T01:30:41;99562.88;;;14.36;89.95
77454;BME280;66538;53.150;18.160;2023-08-07T01:33:18;99564.39;;;14.37;89.99
77454;BME280;66538;53.150;18.160;2023-08-07T01:35:53;99565.38;;;14.36;89.80
77454;BME280;66538;53.150;18.160;2023-08-07T01:38:22;99565.00;;;14.36;89.70
77454;BME280;66538;53.150;18.160;2023-08-07T01:40:51;99565.15;;;14.35;89.66
77454;BME280;66538;53.150;18.160;2023-08-07T01:43:19;99564.10;;;14.35;89.87
77454;BME280;66538;53.150;18.160;2023-08-07T01:45:46;99561.08;;;14.34;89.62
77454;BME280;66538;53.150;18.160;2023-08-07T01:48:13;99556.10;;;14.34;89.74
77454;BME280;66538;53.150;18.160;2023-08-07T01:50:40;99551.13;;;14.35;89.59
77454;BME280;66538;53.150;18.160;2023-08-07T01:53:06;99554.59;;;14.36;89.70
77454;BME280;66538;53.150;18.160;2023-08-07T01:55:33;99557.00;;;14.35;89.79
77454;BME280;66538;53.150;18.160;2023-08-07T01:58:00;99557.10;;;14.34;89.76
77454;BME280;66538;53.150;18.160;2023-08-07T02:00:27;99551.35;;;14.36;89.62
77454;BME280;66538;53.150;18.160;2023-08-07T02:02:53;99545.36;;;14.35;89.49
77454;BME280;66538;53.150;18.160;2023-08-07T02:05:20;99549.58;;;14.35;89.37
77454;BME280;66538;53.150;18.160;2023-08-07T02:07:46;99546.50;;;14.34;89.49
77454;BME280;66538;53.150;18.160;2023-08-07T02:10:13;99548.14;;;14.36;89.65
77454;BME280;66538;53.150;18.160;2023-08-07T02:12:40;99552.11;;;14.36;89.40
77454;BME280;66538;53.150;18.160;2023-08-07T02:15:07;99553.89;;;14.37;89.26
77454;BME280;66538;53.150;18.160;2023-08-07T02:17:34;99552.92;;;14.37;89.18
77454;BME280;66538;53.150;18.160;2023-08-07T02:20:02;99552.76;;;14.36;89.03
77454;BME280;66538;53.150;18.160;2023-08-07T02:22:29;99551.38;;;14.37;89.27
77454;BME280;66538;53.150;18.160;2023-08-07T02:24:55;99543.09;;;14.38;89.06
77454;BME280;66538;53.150;18.160;2023-08-07T02:27:22;99543.67;;;14.37;89.04
77454;BME280;66538;53.150;18.160;2023-08-07T02:29:48;99543.12;;;14.37;89.16
77454;BME280;66538;53.150;18.160;2023-08-07T02:32:17;99542.96;;;14.37;88.93
77454;BME280;66538;53.150;18.160;2023-08-07T02:34:44;99535.99;;;14.37;89.01
77454;BME280;66538;53.150;18.160;2023-08-07T02:37:11;99537.02;;;14.35;89.24
77454;BME280;66538;53.150;18.160;2023-08-07T02:39:38;99538.49;;;14.33;89.17
77454;BME280;66538;53.150;18.160;2023-08-07T02:42:05;99531.69;;;14.33;89.14
77454;BME280;66538;53.150;18.160;2023-08-07T02:44:31;99526.43;;;14.32;89.10
77454;BME280;66538;53.150;18.160;2023-08-07T02:46:58;99536.75;;;14.32;89.13
77454;BME280;66538;53.150;18.160;2023-08-07T02:49:25;99535.80;;;14.31;89.11
77454;BME280;66538;53.150;18.160;2023-08-07T02:51:53;99538.17;;;14.32;89.08
77454;BME280;66538;53.150;18.160;2023-08-07T02:54:19;99541.81;;;14.32;88.87
77454;BME280;66538;53.150;18.160;2023-08-07T02:56:46;99540.34;;;14.32;89.03
77454;BME280;66538;53.150;18.160;2023-08-07T02:59:12;99541.11;;;14.32;88.91
77454;BME280;66538;53.150;18.160;2023-08-07T03:01:39;99548.02;;;14.31;88.75
77454;BME280;66538;53.150;18.160;2023-08-07T03:04:06;99549.08;;;14.33;88.70
77454;BME280;66538;53.150;18.160;2023-08-07T03:06:32;99547.65;;;14.32;88.63
77454;BME280;66538;53.150;18.160;2023-08-07T03:08:59;99548.14;;;14.33;88.71
77454;BME280;66538;53.150;18.160;2023-08-07T03:11:26;99555.68;;;14.34;88.60
77454;BME280;66538;53.150;18.160;2023-08-07T03:13:52;99561.40;;;14.34;88.59
77454;BME280;66538;53.150;18.160;2023-08-07T03:16:19;99561.59;;;14.35;88.47
77454;BME280;66538;53.150;18.160;2023-08-07T03:18:45;99561.95;;;14.36;88.50
77454;BME280;66538;53.150;18.160;2023-08-07T03:21:13;99568.08;;;14.35;87.78
77454;BME280;66538;53.150;18.160;2023-08-07T03:23:40;99572.03;;;14.35;87.94
77454;BME280;66538;53.150;18.160;2023-08-07T03:26:11;99573.90;;;14.35;87.97
77454;BME280;66538;53.150;18.160;2023-08-07T03:28:39;99580.45;;;14.37;88.12
77454;BME280;66538;53.150;18.160;2023-08-07T03:31:07;99583.15;;;14.37;88.07
77454;BME280;66538;53.150;18.160;2023-08-07T03:33:35;99581.41;;;14.37;87.92
77454;BME280;66538;53.150;18.160;2023-08-07T03:36:02;99584.92;;;14.37;88.03
77454;BME280;66538;53.150;18.160;2023-08-07T03:38:29;99584.21;;;14.39;87.92
77454;BME280;66538;53.150;18.160;2023-08-07T03:40:56;99583.66;;;14.38;87.89
77454;BME280;66538;53.150;18.160;2023-08-07T03:43:23;99582.18;;;14.37;87.80
77454;BME280;66538;53.150;18.160;2023-08-07T03:45:54;99582.77;;;14.36;87.93
77454;BME280;66538;53.150;18.160;2023-08-07T03:48:22;99580.35;;;14.34;87.98
77454;BME280;66538;53.150;18.160;2023-08-07T03:50:49;99580.48;;;14.35;87.88
77454;BME280;66538;53.150;18.160;2023-08-07T03:53:17;99581.96;;;14.35;87.75
77454;BME280;66538;53.150;18.160;2023-08-07T03:55:50;99586.77;;;14.37;87.56
77454;BME280;66538;53.150;18.160;2023-08-07T03:58:18;99587.33;;;14.35;87.60
77454;BME280;66538;53.150;18.160;2023-08-07T04:00:44;99591.83;;;14.38;87.71
77454;BME280;66538;53.150;18.160;2023-08-07T04:03:11;99597.70;;;14.38;87.66
77454;BME280;66538;53.150;18.160;2023-08-07T04:05:38;99594.45;;;14.39;87.43
77454;BME280;66538;53.150;18.160;2023-08-07T04:08:07;99597.25;;;14.41;87.52
77454;BME280;66538;53.150;18.160;2023-08-07T04:10:34;99601.08;;;14.42;87.47
77454;BME280;66538;53.150;18.160;2023-08-07T04:13:01;99605.09;;;14.43;87.42
77454;BME280;66538;53.150;18.160;2023-08-07T04:15:27;99603.04;;;14.42;87.09
77454;BME280;66538;53.150;18.160;2023-08-07T04:17:54;99606.05;;;14.40;87.23
77454;BME280;66538;53.150;18.160;2023-08-07T04:20:21;99613.29;;;14.40;87.27
77454;BME280;66538;53.150;18.160;2023-08-07T04:22:47;99615.63;;;14.40;87.39
77454;BME280;66538;53.150;18.160;2023-08-07T04:25:14;99616.30;;;14.39;87.65
77454;BME280;66538;53.150;18.160;2023-08-07T04:27:40;99612.31;;;14.37;87.43
77454;BME280;66538;53.150;18.160;2023-08-07T04:30:07;99612.21;;;14.37;87.59
77454;BME280;66538;53.150;18.160;2023-08-07T04:32:34;99605.21;;;14.36;87.60
77454;BME280;66538;53.150;18.160;2023-08-07T04:35:01;99606.83;;;14.33;87.96
77454;BME280;66538;53.150;18.160;2023-08-07T04:37:27;99613.81;;;14.31;88.05
77454;BME280;66538;53.150;18.160;2023-08-07T04:39:56;99615.30;;;14.29;87.94
77454;BME280;66538;53.150;18.160;2023-08-07T04:42:23;99618.66;;;14.26;88.15
77454;BME280;66538;53.150;18.160;2023-08-07T04:44:50;99619.13;;;14.23;88.31
77454;BME280;66538;53.150;18.160;2023-08-07T04:47:16;99620.45;;;14.20;88.52
77454;BME280;66538;53.150;18.160;2023-08-07T04:49:43;99622.85;;;14.20;88.65
77454;BME280;66538;53.150;18.160;2023-08-07T04:52:09;99626.70;;;14.19;88.85
77454;BME280;66538;53.150;18.160;2023-08-07T04:54:36;99618.48;;;14.17;88.88
77454;BME280;66538;53.150;18.160;2023-08-07T04:57:03;99624.81;;;14.15;88.73
77454;BME280;66538;53.150;18.160;2023-08-07T04:59:30;99629.11;;;14.17;88.91
77454;BME280;66538;53.150;18.160;2023-08-07T05:01:58;99634.96;;;14.19;89.06
77454;BME280;66538;53.150;18.160;2023-08-07T05:04:24;99637.86;;;14.21;88.83
77454;BME280;66538;53.150;18.160;2023-08-07T05:06:51;99640.65;;;14.23;88.69
77454;BME280;66538;53.150;18.160;2023-08-07T05:09:18;99646.55;;;14.22;88.79
77454;BME280;66538;53.150;18.160;2023-08-07T05:11:44;99653.30;;;14.22;88.77
77454;BME280;66538;53.150;18.160;2023-08-07T05:14:11;99658.30;;;14.22;88.73
77454;BME280;66538;53.150;18.160;2023-08-07T05:16:38;99656.64;;;14.23;88.38
77454;BME280;66538;53.150;18.160;2023-08-07T05:19:04;99655.44;;;14.24;88.48
77454;BME280;66538;53.150;18.160;2023-08-07T05:21:31;99654.77;;;14.24;88.37
77454;BME280;66538;53.150;18.160;2023-08-07T05:23:57;99656.94;;;14.24;88.37
77454;BME280;66538;53.150;18.160;2023-08-07T05:26:24;99664.91;;;14.22;88.49
77454;BME280;66538;53.150;18.160;2023-08-07T05:28:50;99671.27;;;14.21;88.63
77454;BME280;66538;53.150;18.160;2023-08-07T05:31:17;99674.37;;;14.19;88.78
77454;BME280;66538;53.150;18.160;2023-08-07T05:33:43;99680.45;;;14.19;88.92
77454;BME280;66538;53.150;18.160;2023-08-07T05:36:10;99684.42;;;14.17;89.02
77454;BME280;66538;53.150;18.160;2023-08-07T05:38:36;99679.66;;;14.17;89.24
77454;BME280;66538;53.150;18.160;2023-08-07T05:41:03;99680.43;;;14.19;89.50
77454;BME280;66538;53.150;18.160;2023-08-07T05:43:30;99681.42;;;14.21;89.54
77454;BME280;66538;53.150;18.160;2023-08-07T05:45:56;99683.81;;;14.24;89.57
77454;BME280;66538;53.150;18.160;2023-08-07T05:48:23;99684.84;;;14.24;89.61
77454;BME280;66538;53.150;18.160;2023-08-07T05:50:51;99686.52;;;14.28;89.41
77454;BME280;66538;53.150;18.160;2023-08-07T05:53:17;99688.08;;;14.29;89.46
77454;BME280;66538;53.150;18.160;2023-08-07T05:55:44;99687.86;;;14.31;89.43
77454;BME280;66538;53.150;18.160;2023-08-07T05:58:11;99686.27;;;14.33;89.51
77454;BME280;66538;53.150;18.160;2023-08-07T06:00:37;99698.33;;;14.35;89.23
77454;BME280;66538;53.150;18.160;2023-08-07T06:03:04;99697.38;;;14.38;89.29
77454;BME280;66538;53.150;18.160;2023-08-07T06:05:30;99700.27;;;14.40;89.02
77454;BME280;66538;53.150;18.160;2023-08-07T06:07:57;99705.13;;;14.38;88.92
77454;BME280;66538;53.150;18.160;2023-08-07T06:10:24;99712.15;;;14.35;88.72
77454;BME280;66538;53.150;18.160;2023-08-07T06:12:50;99705.66;;;14.35;88.84
77454;BME280;66538;53.150;18.160;2023-08-07T06:15:17;99704.95;;;14.35;88.73
77454;BME280;66538;53.150;18.160;2023-08-07T06:17:44;99705.59;;;14.35;88.61
77454;BME280;66538;53.150;18.160;2023-08-07T06:20:11;99710.23;;;14.36;88.78
77454;BME280;66538;53.150;18.160;2023-08-07T06:22:40;99709.35;;;14.35;88.82
77454;BME280;66538;53.150;18.160;2023-08-07T06:25:07;99711.70;;;14.36;88.83
77454;BME280;66538;53.150;18.160;2023-08-07T06:27:34;99708.69;;;14.39;88.76
77454;BME280;66538;53.150;18.160;2023-08-07T06:30:01;99711.49;;;14.46;88.60
77454;BME280;66538;53.150;18.160;2023-08-07T06:32:28;99705.17;;;14.51;88.34
77454;BME280;66538;53.150;18.160;2023-08-07T06:34:55;99707.28;;;14.54;88.32
77454;BME280;66538;53.150;18.160;2023-08-07T06:37:21;99703.62;;;14.54;88.45
77454;BME280;66538;53.150;18.160;2023-08-07T06:39:48;99707.59;;;14.54;88.30
77454;BME280;66538;53.150;18.160;2023-08-07T06:42:15;99714.83;;;14.54;88.20
77454;BME280;66538;53.150;18.160;2023-08-07T06:44:43;99716.16;;;14.54;88.15
77454;BME280;66538;53.150;18.160;2023-08-07T06:47:09;99716.57;;;14.56;87.89
77454;BME280;66538;53.150;18.160;2023-08-07T06:49:36;99718.98;;;14.57;87.85
77454;BME280;66538;53.150;18.160;2023-08-07T06:52:04;99721.23;;;14.62;87.70
77454;BME280;66538;53.150;18.160;2023-08-07T06:54:30;99724.27;;;14.70;87.57
77454;BME280;66538;53.150;18.160;2023-08-07T06:56:57;99724.22;;;14.82;87.27
77454;BME280;66538;53.150;18.160;2023-08-07T06:59:24;99729.11;;;14.98;86.69
77454;BME280;66538;53.150;18.160;2023-08-07T07:01:51;99727.64;;;15.12;86.03
77454;BME280;66538;53.150;18.160;2023-08-07T07:04:18;99731.64;;;15.25;85.79
77454;BME280;66538;53.150;18.160;2023-08-07T07:06:44;99738.50;;;15.33;84.20
77454;BME280;66538;53.150;18.160;2023-08-07T07:09:11;99738.77;;;15.38;84.43
77454;BME280;66538;53.150;18.160;2023-08-07T07:11:43;99743.25;;;15.44;84.60
77454;BME280;66538;53.150;18.160;2023-08-07T07:14:10;99748.25;;;15.51;84.16
77454;BME280;66538;53.150;18.160;2023-08-07T07:16:37;99751.52;;;15.60;83.77
77454;BME280;66538;53.150;18.160;2023-08-07T07:19:05;99757.23;;;15.70;83.75
77454;BME280;66538;53.150;18.160;2023-08-07T07:21:35;99763.02;;;15.80;83.67
77454;BME280;66538;53.150;18.160;2023-08-07T07:24:02;99759.86;;;15.88;83.23
77454;BME280;66538;53.150;18.160;2023-08-07T07:26:29;99769.37;;;15.85;83.15
77454;BME280;66538;53.150;18.160;2023-08-07T07:28:55;99769.32;;;15.88;83.13
77454;BME280;66538;53.150;18.160;2023-08-07T07:31:22;99766.44;;;15.93;83.29
77454;BME280;66538;53.150;18.160;2023-08-07T07:33:49;99768.20;;;15.96;83.18
77454;BME280;66538;53.150;18.160;2023-08-07T07:36:18;99767.96;;;16.00;83.09
77454;BME280;66538;53.150;18.160;2023-08-07T07:38:46;99775.41;;;16.06;83.05
77454;BME280;66538;53.150;18.160;2023-08-07T07:41:14;99780.98;;;16.06;82.24
77454;BME280;66538;53.150;18.160;2023-08-07T07:43:42;99778.29;;;16.00;82.04
77454;BME280;66538;53.150;18.160;2023-08-07T07:46:08;99784.04;;;15.99;82.17
77454;BME280;66538;53.150;18.160;2023-08-07T07:48:35;99789.81;;;16.04;81.67
77454;BME280;66538;53.150;18.160;2023-08-07T07:51:03;99785.24;;;16.05;81.04
77454;BME280;66538;53.150;18.160;2023-08-07T07:53:30;99780.84;;;16.14;80.30
77454;BME280;66538;53.150;18.160;2023-08-07T07:55:57;99781.66;;;16.26;80.28
77454;BME280;66538;53.150;18.160;2023-08-07T07:58:24;99786.21;;;16.43;80.72
77454;BME280;66538;53.150;18.160;2023-08-07T08:00:51;99782.80;;;16.58;79.46
77454;BME280;66538;53.150;18.160;2023-08-07T08:03:21;99775.73;;;16.74;79.57
77454;BME280;66538;53.150;18.160;2023-08-07T08:05:51;99780.94;;;16.92;79.51
77454;BME280;66538;53.150;18.160;2023-08-07T08:08:18;99783.54;;;17.09;77.27
77454;BME280;66538;53.150;18.160;2023-08-07T08:10:45;99781.70;;;17.23;76.57
77454;BME280;66538;53.150;18.160;2023-08-07T08:13:17;99779.22;;;17.36;76.36
77454;BME280;66538;53.150;18.160;2023-08-07T08:15:44;99782.10;;;17.45;75.65
77454;BME280;66538;53.150;18.160;2023-08-07T08:18:11;99787.03;;;17.54;74.08
77454;BME280;66538;53.150;18.160;2023-08-07T08:20:38;99788.45;;;17.58;72.85
77454;BME280;66538;53.150;18.160;2023-08-07T08:23:05;99790.45;;;17.67;73.09
77454;BME280;66538;53.150;18.160;2023-08-07T08:25:32;99790.59;;;17.71;70.75
77454;BME280;66538;53.150;18.160;2023-08-07T08:28:01;99797.74;;;17.72;70.46
77454;BME280;66538;53.150;18.160;2023-08-07T08:30:28;99803.55;;;17.80;70.61
77454;BME280;66538;53.150;18.160;2023-08-07T08:32:55;99796.25;;;17.91;70.86
77454;BME280;66538;53.150;18.160;2023-08-07T08:35:25;99798.81;;;18.08;68.70
77454;BME280;66538;53.150;18.160;2023-08-07T08:37:52;99801.77;;;18.21;67.59
77454;BME280;66538;53.150;18.160;2023-08-07T08:40:18;99797.36;;;18.32;66.94
77454;BME280;66538;53.150;18.160;2023-08-07T08:42:46;99803.81;;;18.41;66.25
77454;BME280;66538;53.150;18.160;2023-08-07T08:45:14;99807.95;;;18.47;64.03
77454;BME280;66538;53.150;18.160;2023-08-07T08:47:41;99797.19;;;18.50;64.06
77454;BME280;66538;53.150;18.160;2023-08-07T08:50:12;99815.11;;;18.59;63.32
77454;BME280;66538;53.150;18.160;2023-08-07T08:52:44;99808.73;;;18.66;63.07
77454;BME280;66538;53.150;18.160;2023-08-07T08:55:12;99816.34;;;18.66;63.30
77454;BME280;66538;53.150;18.160;2023-08-07T08:57:39;99814.96;;;18.72;63.51
77454;BME280;66538;53.150;18.160;2023-08-07T09:00:08;99813.75;;;18.71;62.03
77454;BME280;66538;53.150;18.160;2023-08-07T09:02:49;99815.56;;;18.73;63.10
77454;BME280;66538;53.150;18.160;2023-08-07T09:05:19;99815.85;;;18.82;62.58
77454;BME280;66538;53.150;18.160;2023-08-07T09:07:47;99820.92;;;18.96;61.67
77454;BME280;66538;53.150;18.160;2023-08-07T09:10:16;99814.86;;;19.18;62.77
77454;BME280;66538;53.150;18.160;2023-08-07T09:12:47;99810.79;;;19.28;59.80
77454;BME280;66538;53.150;18.160;2023-08-07T09:15:16;99818.58;;;19.36;59.40
77454;BME280;66538;53.150;18.160;2023-08-07T09:17:43;99829.23;;;19.43;58.65
77454;BME280;66538;53.150;18.160;2023-08-07T09:20:11;99831.23;;;19.52;59.40
77454;BME280;66538;53.150;18.160;2023-08-07T09:22:41;99827.42;;;19.48;58.39
77454;BME280;66538;53.150;18.160;2023-08-07T09:25:09;99825.98;;;19.44;59.43
77454;BME280;66538;53.150;18.160;2023-08-07T09:27:39;99826.40;;;19.56;58.61
77454;BME280;66538;53.150;18.160;2023-08-07T09:30:07;99817.23;;;19.62;60.19
77454;BME280;66538;53.150;18.160;2023-08-07T09:32:37;99824.59;;;19.59;59.24
77454;BME280;66538;53.150;18.160;2023-08-07T09:35:06;99829.10;;;19.43;58.38
77454;BME280;66538;53.150;18.160;2023-08-07T09:37:36;99826.02;;;19.38;58.58
77454;BME280;66538;53.150;18.160;2023-08-07T09:40:07;99830.45;;;19.36;58.52
77454;BME280;66538;53.150;18.160;2023-08-07T09:42:37;99829.34;;;19.33;57.95
77454;BME280;66538;53.150;18.160;2023-08-07T09:45:19;99818.62;;;19.45;57.91
77454;BME280;66538;53.150;18.160;2023-08-07T09:47:46;99832.18;;;19.51;57.77
77454;BME280;66538;53.150;18.160;2023-08-07T09:50:16;99830.27;;;19.48;57.84
77454;BME280;66538;53.150;18.160;2023-08-07T09:52:50;99806.17;;;19.53;57.85
77454;BME280;66538;53.150;18.160;2023-08-07T09:55:17;99815.15;;;19.77;58.02
77454;BME280;66538;53.150;18.160;2023-08-07T09:57:44;99818.24;;;19.96;57.43
77454;BME280;66538;53.150;18.160;2023-08-07T10:00:12;99814.05;;;20.23;56.13
77454;BME280;66538;53.150;18.160;2023-08-07T10:02:42;99813.21;;;20.33;55.66
77454;BME280;66538;53.150;18.160;2023-08-07T10:05:10;99808.54;;;20.17;55.08
77454;BME280;66538;53.150;18.160;2023-08-07T10:07:40;99817.86;;;19.96;55.34
77454;BME280;66538;53.150;18.160;2023-08-07T10:10:08;99812.52;;;19.79;54.27
77454;BME280;66538;53.150;18.160;2023-08-07T10:12:37;99808.72;;;19.59;54.63
77454;BME280;66538;53.150;18.160;2023-08-07T10:15:05;99809.51;;;19.38;55.70
77454;BME280;66538;53.150;18.160;2023-08-07T10:17:32;99811.05;;;19.17;56.71
77454;BME280;66538;53.150;18.160;2023-08-07T10:20:00;99827.30;;;18.99;57.55
77454;BME280;66538;53.150;18.160;2023-08-07T10:22:29;99843.43;;;18.82;58.43
77454;BME280;66538;53.150;18.160;2023-08-07T10:25:00;99844.43;;;18.72;58.81
77454;BME280;66538;53.150;18.160;2023-08-07T10:27:33;99856.77;;;18.69;58.83
77454;BME280;66538;53.150;18.160;2023-08-07T10:30:04;99864.40;;;18.75;59.23
77454;BME280;66538;53.150;18.160;2023-08-07T10:32:35;99870.83;;;18.84;59.67
77454;BME280;66538;53.150;18.160;2023-08-07T10:35:03;99882.56;;;18.90;59.79
77454;BME280;66538;53.150;18.160;2023-08-07T10:40:04;99888.93;;;19.01;60.43
77454;BME280;66538;53.150;18.160;2023-08-07T10:45:26;99891.17;;;18.98;60.09
77454;BME280;66538;53.150;18.160;2023-08-07T10:48:06;99896.65;;;18.90;60.50
77454;BME280;66538;53.150;18.160;2023-08-07T10:56:04;99905.44;;;18.57;61.23
77454;BME280;66538;53.150;18.160;2023-08-07T10:58:33;99919.18;;;18.42;61.93
77454;BME280;66538;53.150;18.160;2023-08-07T11:01:27;99932.59;;;18.31;63.17
77454;BME280;66538;53.150;18.160;2023-08-07T11:03:58;99939.41;;;18.20;64.96
77454;BME280;66538;53.150;18.160;2023-08-07T11:06:30;99957.10;;;18.12;65.63
77454;BME280;66538;53.150;18.160;2023-08-07T11:09:04;99961.19;;;18.06;66.03
77454;BME280;66538;53.150;18.160;2023-08-07T11:11:42;99955.34;;;18.07;66.49
77454;BME280;66538;53.150;18.160;2023-08-07T11:14:13;99952.47;;;18.10;66.47
77454;BME280;66538;53.150;18.160;2023-08-07T11:16:41;99945.19;;;18.17;66.44
77454;BME280;66538;53.150;18.160;2023-08-07T11:19:08;99938.63;;;18.28;66.44
77454;BME280;66538;53.150;18.160;2023-08-07T11:21:37;99940.54;;;18.46;65.81
77454;BME280;66538;53.150;18.160;2023-08-07T11:24:04;99941.56;;;18.68;65.64
77454;BME280;66538;53.150;18.160;2023-08-07T11:26:33;99946.23;;;18.94;64.77
77454;BME280;66538;53.150;18.160;2023-08-07T11:29:00;99948.23;;;19.19;63.89
77454;BME280;66538;53.150;18.160;2023-08-07T11:31:27;99955.66;;;19.39;64.11
77454;BME280;66538;53.150;18.160;2023-08-07T11:33:55;99954.04;;;19.60;63.72
77454;BME280;66538;53.150;18.160;2023-08-07T11:36:24;99953.14;;;19.84;64.10
77454;BME280;66538;53.150;18.160;2023-08-07T11:38:51;99955.98;;;20.10;63.57
77454;BME280;66538;53.150;18.160;2023-08-07T11:41:18;99961.16;;;20.34;63.18
77454;BME280;66538;53.150;18.160;2023-08-07T11:43:46;99956.08;;;20.49;63.03
77454;BME280;66538;53.150;18.160;2023-08-07T11:46:15;99950.64;;;20.58;62.80
77454;BME280;66538;53.150;18.160;2023-08-07T11:48:43;99954.52;;;20.62;61.99
77454;BME280;66538;53.150;18.160;2023-08-07T11:51:11;99957.83;;;20.52;62.23
77454;BME280;66538;53.150;18.160;2023-08-07T11:53:40;99964.34;;;20.32;62.25
77454;BME280;66538;53.150;18.160;2023-08-07T11:56:09;99963.05;;;20.10;62.89
77454;BME280;66538;53.150;18.160;2023-08-07T11:58:41;99965.66;;;19.98;62.84
77454;BME280;66538;53.150;18.160;2023-08-07T12:01:18;99957.94;;;19.97;62.26
77454;BME280;66538;53.150;18.160;2023-08-07T12:03:55;99958.27;;;19.98;61.38
77454;BME280;66538;53.150;18.160;2023-08-07T12:06:24;99959.91;;;19.95;60.73
77454;BME280;66538;53.150;18.160;2023-08-07T12:08:55;99957.83;;;19.91;60.38
77454;BME280;66538;53.150;18.160;2023-08-07T12:11:23;99960.31;;;19.92;60.73
77454;BME280;66538;53.150;18.160;2023-08-07T12:13:51;99956.91;;;19.92;60.28
77454;BME280;66538;53.150;18.160;2023-08-07T12:16:19;99954.96;;;19.95;59.52
77454;BME280;66538;53.150;18.160;2023-08-07T12:18:50;99954.84;;;20.02;59.05
77454;BME280;66538;53.150;18.160;2023-08-07T12:21:18;99948.48;;;20.12;58.57
77454;BME280;66538;53.150;18.160;2023-08-07T12:23:51;99941.58;;;20.32;57.18
77454;BME280;66538;53.150;18.160;2023-08-07T12:26:21;99938.59;;;20.49;56.61
77454;BME280;66538;53.150;18.160;2023-08-07T12:28:47;99943.32;;;20.67;56.47
77454;BME280;66538;53.150;18.160;2023-08-07T12:31:15;99943.94;;;20.81;55.22
77454;BME280;66538;53.150;18.160;2023-08-07T12:33:41;99938.92;;;21.00;54.46
77454;BME280;66538;53.150;18.160;2023-08-07T12:36:08;99936.05;;;21.27;53.42
77454;BME280;66538;53.150;18.160;2023-08-07T12:38:35;99940.94;;;21.67;52.15
77454;BME280;66538;53.150;18.160;2023-08-07T12:41:03;99941.16;;;22.12;51.15
77454;BME280;66538;53.150;18.160;2023-08-07T12:43:29;99936.02;;;22.55;50.11
77454;BME280;66538;53.150;18.160;2023-08-07T12:45:59;99933.54;;;22.83;50.29
77454;BME280;66538;53.150;18.160;2023-08-07T12:48:26;99935.41;;;22.77;48.72
77454;BME280;66538;53.150;18.160;2023-08-07T12:50:54;99934.83;;;22.43;47.89
77454;BME280;66538;53.150;18.160;2023-08-07T12:53:29;99945.89;;;22.12;48.08
77454;BME280;66538;53.150;18.160;2023-08-07T12:55:57;99948.63;;;21.85;47.23
77454;BME280;66538;53.150;18.160;2023-08-07T12:58:24;99947.23;;;21.62;47.68
77454;BME280;66538;53.150;18.160;2023-08-07T13:00:52;99950.77;;;21.48;48.28
77454;BME280;66538;53.150;18.160;2023-08-07T13:03:19;99936.23;;;21.24;47.78
77454;BME280;66538;53.150;18.160;2023-08-07T13:05:47;99931.00;;;21.20;48.40